Time;durP1;ratioP1;P1;durP2;ratioP2;P2;SDS_P1;SDS_P2;PMS_P1;PMS_P2;Temp;Humidity;BMP_temperature;BMP_pressure;BME280_temperature;BME280_humidity;BME280_pressure;Samples;Min_cycle;Max_cycle;Signal;HPM_P1;HPM_P2
2022/03/05 00:00:10;;;;;;;;;;;7.50;62.80;8.10;99445.00;;;;345610;28;92555;-87
2022/03/05 00:00:21;;;;;;;;;;;7.50;62.80;8.10;99449.00;;;;346026;28;93416;-86
2022/03/05 00:00:33;;;;;;;;;;;7.50;62.80;8.10;99448.00;;;;344076;28;91228;-87
2022/03/05 00:00:45;;;;;;;;;;;7.50;62.90;8.10;99445.00;;;;343172;28;95707;-87
2022/03/05 00:00:57;;;;;;;;;;;7.60;62.90;8.20;99438.00;;;;344217;28;91231;-87
2022/03/05 00:01:09;;;;;;;;;;;7.50;62.80;8.20;99438.00;;;;344438;28;94023;-87
2022/03/05 00:01:21;;;;;;;;;;;7.60;62.70;8.20;99444.00;;;;343027;28;91934;-87
2022/03/05 00:01:33;;;;;;;;;;;7.60;62.60;8.20;99437.00;;;;343222;28;91908;-87
2022/03/05 00:01:45;;;;;;;;;;;7.60;62.50;8.20;99443.00;;;;343630;28;92153;-87
2022/03/05 00:01:57;;;;;;;;;;;7.60;62.60;8.20;99441.00;;;;346042;28;93086;-87
2022/03/05 00:02:09;;;;;;;;;;;7.60;62.50;8.20;99444.00;;;;344296;28;91879;-87
2022/03/05 00:02:21;;;;;;;;;;;7.60;62.50;8.10;99436.00;;;;344555;28;96197;-86
2022/03/05 00:02:33;;;;;;;;;;;7.60;62.50;8.00;99444.00;;;;344255;28;91972;-87
2022/03/05 00:02:46;;;;;;;;;;;7.60;62.60;8.00;99439.00;;;;344435;28;95941;-86
2022/03/05 00:02:59;;;;;;;;;;;7.60;62.70;8.00;99442.00;;;;343066;28;90147;-86
2022/03/05 00:03:11;;;;;;;;;;;7.50;62.50;8.00;99445.00;;;;345812;28;95916;-87
2022/03/05 00:03:25;;;;;;;;;;;7.60;62.50;8.10;99443.00;;;;344323;28;91986;-87
2022/03/05 00:03:37;;;;;;;;;;;7.60;62.60;8.10;99445.00;;;;344331;28;96427;-86
2022/03/05 00:03:49;;;;;;;;;;;7.60;62.60;8.10;99446.00;;;;346786;27;91269;-87
2022/03/05 00:04:00;;;;;;;;;;;7.60;62.60;8.10;99455.00;;;;345962;28;93045;-87
2022/03/05 00:04:14;;;;;;;;;;;7.60;62.70;8.00;99448.00;;;;344502;28;91848;-86
2022/03/05 00:04:25;;;;;;;;;;;7.60;62.70;8.00;99442.00;;;;345439;28;93154;-86
2022/03/05 00:04:37;;;;;;;;;;;7.60;62.70;8.10;99440.00;;;;345721;28;91169;-87
2022/03/05 00:04:51;;;;;;;;;;;7.50;62.60;8.10;99443.00;;;;344510;28;96206;-86
2022/03/05 00:05:03;;;;;;;;;;;7.50;62.60;8.10;99439.00;;;;344309;28;91345;-86
2022/03/05 00:05:16;;;;;;;;;;;7.60;62.60;8.10;99447.00;;;;346435;28;92448;-86
2022/03/05 00:05:27;;;;;;;;;;;7.60;62.50;8.10;99446.00;;;;347177;28;92201;-87
2022/03/05 00:05:39;;;;;;;;;;;7.60;62.50;8.10;99447.00;;;;345827;28;95604;-87
2022/03/05 00:05:51;;;;;;;;;;;7.50;62.40;8.10;99444.00;;;;347061;28;91985;-87
2022/03/05 00:06:03;;;;;;;;;;;7.60;62.50;8.10;99440.00;;;;348678;27;93277;-87
2022/03/05 00:06:15;;;;;;;;;;;7.60;62.70;8.20;99445.00;;;;347116;28;91861;-87
2022/03/05 00:06:26;;;;;;;;;;;7.60;62.60;8.10;99447.00;;;;345989;28;93456;-87
2022/03/05 00:06:38;;;;;;;;;;;7.50;62.50;8.00;99443.00;;;;346967;28;92124;-87
2022/03/05 00:06:50;;;;;;;;;;;7.50;62.80;8.10;99444.00;;;;347319;28;94677;-87
2022/03/05 00:07:02;;;;;;;;;;;7.50;62.90;8.10;99443.00;;;;346762;28;91381;-87
2022/03/05 00:07:14;;;;;;;;;;;7.50;62.70;8.10;99443.00;;;;346423;28;94928;-87
2022/03/05 00:07:26;;;;;;;;;;;7.60;62.80;8.10;99440.00;;;;345845;28;91947;-87
2022/03/05 00:07:37;;;;;;;;;;;7.60;62.80;8.10;99444.00;;;;344283;28;94645;-87
2022/03/05 00:07:49;;;;;;;;;;;7.50;62.80;8.00;99433.00;;;;342689;28;92916;-87
2022/03/05 00:08:01;;;;;;;;;;;7.60;62.80;8.00;99438.00;;;;344498;28;96066;-87
2022/03/05 00:08:13;;;;;;;;;;;7.60;63.00;8.00;99447.00;;;;344393;28;92078;-87
2022/03/05 00:08:25;;;;;;;;;;;7.50;62.90;8.00;99443.00;;;;345929;28;93694;-87
2022/03/05 00:08:36;;;;;;;;;;;7.50;63.40;8.00;99443.00;;;;344283;28;91978;-87
2022/03/05 00:08:48;;;;;;;;;;;7.50;62.70;8.00;99444.00;;;;345765;28;95291;-87
2022/03/05 00:09:00;;;;;;;;;;;7.50;62.50;8.00;99444.00;;;;348490;27;91122;-87
2022/03/05 00:09:12;;;;;;;;;;;7.50;62.50;8.00;99444.00;;;;347332;28;92843;-87
2022/03/05 00:09:24;;;;;;;;;;;7.50;62.50;8.00;99436.00;;;;349892;27;91867;-87
2022/03/05 00:09:35;;;;;;;;;;;7.50;62.70;8.00;99443.00;;;;348680;27;95933;-87
2022/03/05 00:09:47;;;;;;;;;;;7.50;62.80;8.00;99441.00;;;;349822;27;91121;-87
2022/03/05 00:09:59;;;;;;;;;;;7.50;62.90;7.90;99440.00;;;;347328;28;96202;-87
2022/03/05 00:10:11;;;;;;;;;;;7.50;62.90;7.90;99444.00;;;;349217;27;91902;-87
2022/03/05 00:10:23;;;;;;;;;;;7.50;63.00;7.90;99439.00;;;;345741;28;93582;-87
2022/03/05 00:10:38;;;;;;;;;;;7.50;63.20;7.90;99438.00;;;;347103;28;92014;-87
2022/03/05 00:10:50;;;;;;;;;;;7.40;63.20;7.90;99444.00;;;;347088;28;93376;-86
2022/03/05 00:11:02;;;;;;;;;;;7.50;63.20;7.90;99441.00;;;;344201;28;91386;-86
2022/03/05 00:11:13;;;;;;;;;;;7.40;63.20;7.90;99440.00;;;;343142;28;93074;-86
2022/03/05 00:11:25;;;;;;;;;;;7.40;63.00;7.90;99437.00;;;;345724;28;91835;-86
2022/03/05 00:11:38;;;;;;;;;;;7.40;62.80;7.80;99437.00;;;;347213;28;95786;-86
2022/03/05 00:11:50;;;;;;;;;;;7.40;63.10;7.90;99438.00;;;;345684;28;92084;-86
2022/03/05 00:12:02;;;;;;;;;;;7.40;63.60;8.00;99440.00;;;;347340;28;93477;-86
2022/03/05 00:12:14;;;;;;;;;;;7.40;63.10;7.90;99443.00;;;;345688;28;91940;-86
2022/03/05 00:12:26;;;;;;;;;;;7.40;63.20;7.90;99443.00;;;;345716;28;96122;-86
2022/03/05 00:12:38;;;;;;;;;;;7.40;63.30;7.90;99433.00;;;;344363;28;92022;-87
2022/03/05 00:12:50;;;;;;;;;;;7.40;63.10;7.90;99440.00;;;;347261;28;96018;-86
2022/03/05 00:13:01;;;;;;;;;;;7.40;62.90;7.90;99443.00;;;;348355;27;91305;-86
2022/03/05 00:13:13;;;;;;;;;;;7.40;62.80;7.80;99453.00;;;;347618;27;95389;-86
2022/03/05 00:13:25;;;;;;;;;;;7.40;63.00;7.80;99444.00;;;;347344;27;92023;-86
2022/03/05 00:13:37;;;;;;;;;;;7.40;63.30;8.00;99438.00;;;;347333;28;93450;-86
2022/03/05 00:13:49;;;;;;;;;;;7.40;63.30;8.00;99440.00;;;;346988;28;91930;-86
2022/03/05 00:14:01;;;;;;;;;;;7.40;63.40;8.10;99440.00;;;;347150;28;96680;-86
2022/03/05 00:14:14;;;;;;;;;;;7.40;64.00;8.10;99437.00;;;;346631;28;91136;-86
2022/03/05 00:14:26;;;;;;;;;;;7.40;63.40;7.90;99437.00;;;;347248;28;96175;-86
2022/03/05 00:14:38;;;;;;;;;;;7.40;63.40;7.90;99440.00;;;;347000;28;92022;-86
2022/03/05 00:14:50;;;;;;;;;;;7.40;63.50;7.80;99441.00;;;;345857;28;95477;-86
2022/03/05 00:15:03;;;;;;;;;;;7.40;63.70;7.80;99448.00;;;;345656;28;91291;-86
2022/03/05 00:15:16;;;;;;;;;;;7.40;64.20;7.80;99443.00;;;;345990;28;91641;-86
2022/03/05 00:15:28;;;;;;;;;;;7.40;63.70;7.70;99442.00;;;;347084;28;92047;-86
2022/03/05 00:15:40;;;;;;;;;;;7.40;63.80;7.70;99446.00;;;;348680;27;94650;-87
2022/03/05 00:15:52;;;;;;;;;;;7.30;63.80;7.80;99450.00;;;;348362;27;91971;-86
2022/03/05 00:16:04;;;;;;;;;;;7.30;63.70;7.80;99441.00;;;;345920;28;93822;-86
2022/03/05 00:16:16;;;;;;;;;;;7.30;63.70;7.90;99442.00;;;;346429;28;92200;-86
2022/03/05 00:16:28;;;;;;;;;;;7.30;63.70;7.90;99447.00;;;;345838;28;93816;-86
2022/03/05 00:16:39;;;;;;;;;;;7.30;63.60;8.00;99444.00;;;;346933;28;91996;-86
2022/03/05 00:16:51;;;;;;;;;;;7.30;63.60;7.90;99447.00;;;;345801;28;95131;-87
2022/03/05 00:17:04;;;;;;;;;;;7.30;63.80;7.80;99442.00;;;;347031;28;91273;-87
2022/03/05 00:17:16;;;;;;;;;;;7.40;64.00;7.80;99449.00;;;;347842;27;95094;-87
2022/03/05 00:17:27;;;;;;;;;;;7.30;64.00;7.80;99445.00;;;;347067;28;91935;-86
2022/03/05 00:17:39;;;;;;;;;;;7.30;64.10;7.80;99445.00;;;;345817;28;95746;-86
2022/03/05 00:17:51;;;;;;;;;;;7.30;64.00;7.80;99450.00;;;;347042;28;92223;-86
2022/03/05 00:18:03;;;;;;;;;;;7.30;63.90;7.90;99445.00;;;;345918;28;96652;-86
2022/03/05 00:18:15;;;;;;;;;;;7.30;63.70;7.90;99444.00;;;;345406;28;92084;-86
2022/03/05 00:18:27;;;;;;;;;;;7.30;63.70;7.90;99454.00;;;;348442;27;93107;-86
2022/03/05 00:18:39;;;;;;;;;;;7.30;63.90;7.90;99444.00;;;;349755;27;91935;-86
2022/03/05 00:18:51;;;;;;;;;;;7.30;63.80;7.80;99451.00;;;;348561;27;95723;-86
2022/03/05 00:19:03;;;;;;;;;;;7.30;63.90;7.70;99448.00;;;;345612;28;91358;-86
2022/03/05 00:19:15;;;;;;;;;;;7.30;64.10;7.70;99442.00;;;;346933;28;92659;-86
2022/03/05 00:19:27;;;;;;;;;;;7.30;64.10;7.80;99445.00;;;;349172;27;91894;-86
2022/03/05 00:19:39;;;;;;;;;;;7.30;64.10;7.90;99448.00;;;;347339;28;93032;-86
2022/03/05 00:19:51;;;;;;;;;;;7.30;64.00;7.90;99442.00;;;;346875;27;92111;-86
2022/03/05 00:20:05;;;;;;;;;;;7.30;63.90;8.00;99441.00;;;;350096;27;95946;-86
2022/03/05 00:20:18;;;;;;;;;;;7.30;63.90;7.80;99443.00;;;;346209;28;92052;-86
2022/03/05 00:20:30;;;;;;;;;;;7.30;63.90;7.90;99448.00;;;;344452;28;96333;-86
2022/03/05 00:20:43;;;;;;;;;;;7.30;63.90;7.90;99446.00;;;;345695;28;91264;-86
2022/03/05 00:20:54;;;;;;;;;;;7.30;63.90;7.80;99448.00;;;;345628;28;96451;-86
2022/03/05 00:21:06;;;;;;;;;;;7.30;63.90;7.80;99456.00;;;;346994;28;90439;-86
2022/03/05 00:21:18;;;;;;;;;;;7.30;63.90;7.70;99449.00;;;;346009;28;93094;-86
2022/03/05 00:21:30;;;;;;;;;;;7.30;64.00;7.70;99456.00;;;;345689;28;92060;-86
2022/03/05 00:21:42;;;;;;;;;;;7.30;64.10;7.70;99453.00;;;;347166;28;96243;-86
2022/03/05 00:21:54;;;;;;;;;;;7.30;64.10;7.70;99446.00;;;;345677;28;91994;-86
2022/03/05 00:22:06;;;;;;;;;;;7.30;64.20;7.70;99454.00;;;;344516;28;94692;-86
2022/03/05 00:22:17;;;;;;;;;;;7.30;64.20;7.70;99452.00;;;;347092;27;92252;-86
2022/03/05 00:22:29;;;;;;;;;;;7.30;64.20;7.70;99443.00;;;;348516;27;96516;-86
2022/03/05 00:22:41;;;;;;;;;;;7.20;64.30;7.60;99450.00;;;;346983;28;91160;-86
2022/03/05 00:22:53;;;;;;;;;;;7.20;64.30;7.60;99440.00;;;;345867;28;95918;-86
2022/03/05 00:23:05;;;;;;;;;;;7.30;64.40;7.70;99455.00;;;;348350;27;90518;-86
2022/03/05 00:23:17;;;;;;;;;;;7.20;64.30;7.70;99454.00;;;;348527;27;95103;-87
2022/03/05 00:23:28;;;;;;;;;;;7.20;64.00;7.80;99449.00;;;;347086;28;91881;-86
2022/03/05 00:23:40;;;;;;;;;;;7.20;64.10;7.80;99447.00;;;;347239;28;93207;-87
2022/03/05 00:23:52;;;;;;;;;;;7.20;64.20;7.80;99455.00;;;;344226;28;91966;-87
2022/03/05 00:24:04;;;;;;;;;;;7.20;64.30;7.80;99447.00;;;;343283;28;92097;-86
2022/03/05 00:24:16;;;;;;;;;;;7.20;64.30;7.80;99451.00;;;;343842;28;92480;-86
2022/03/05 00:24:28;;;;;;;;;;;7.20;64.30;7.70;99452.00;;;;348673;27;93143;-87
2022/03/05 00:24:40;;;;;;;;;;;7.20;64.30;7.70;99449.00;;;;348439;27;91998;-86
2022/03/05 00:24:52;;;;;;;;;;;7.20;64.30;7.80;99450.00;;;;345772;28;96556;-86
2022/03/05 00:25:04;;;;;;;;;;;7.20;64.10;7.80;99456.00;;;;348373;27;91270;-86
2022/03/05 00:25:16;;;;;;;;;;;7.20;64.10;7.70;99458.00;;;;343927;28;92757;-86
2022/03/05 00:25:28;;;;;;;;;;;7.20;64.40;7.60;99451.00;;;;345583;28;92171;-87
2022/03/05 00:25:40;;;;;;;;;;;7.20;64.40;7.80;99448.00;;;;347084;28;95775;-86
2022/03/05 00:25:52;;;;;;;;;;;7.20;64.30;7.80;99455.00;;;;344269;28;91238;-86
2022/03/05 00:26:04;;;;;;;;;;;7.20;64.20;7.90;99444.00;;;;347367;28;93534;-86
2022/03/05 00:26:17;;;;;;;;;;;7.20;64.10;7.90;99445.00;;;;346910;28;92099;-86
2022/03/05 00:26:29;;;;;;;;;;;7.20;64.10;7.80;99451.00;;;;345478;28;92268;-85
2022/03/05 00:26:40;;;;;;;;;;;7.20;64.10;7.80;99443.00;;;;343708;28;91998;-86
2022/03/05 00:26:52;;;;;;;;;;;7.20;64.60;7.80;99454.00;;;;346918;28;92596;-86
2022/03/05 00:27:04;;;;;;;;;;;7.20;64.10;7.80;99446.00;;;;344259;28;91215;-86
2022/03/05 00:27:17;;;;;;;;;;;7.20;64.10;7.90;99456.00;;;;345923;28;95150;-86
2022/03/05 00:27:28;;;;;;;;;;;7.20;64.00;7.70;99453.00;;;;345937;28;92041;-86
2022/03/05 00:27:40;;;;;;;;;;;7.20;64.00;7.80;99450.00;;;;347256;28;93375;-86
2022/03/05 00:27:53;;;;;;;;;;;7.20;64.10;7.80;99450.00;;;;345597;28;91981;-86
2022/03/05 00:28:05;;;;;;;;;;;7.20;64.00;7.90;99449.00;;;;345973;28;93392;-87
2022/03/05 00:28:17;;;;;;;;;;;7.20;64.10;7.90;99454.00;;;;345082;28;91402;-86
2022/03/05 00:28:29;;;;;;;;;;;7.20;64.10;7.90;99457.00;;;;345765;28;94786;-86
2022/03/05 00:28:41;;;;;;;;;;;7.20;64.10;7.80;99458.00;;;;346662;28;91915;-86
2022/03/05 00:28:53;;;;;;;;;;;7.20;64.10;7.70;99462.00;;;;347259;28;96666;-86
2022/03/05 00:29:06;;;;;;;;;;;7.20;64.20;7.80;99449.00;;;;346962;28;91868;-86
2022/03/05 00:29:18;;;;;;;;;;;7.20;64.20;7.90;99456.00;;;;348311;27;92891;-86
2022/03/05 00:29:30;;;;;;;;;;;7.20;64.30;7.90;99455.00;;;;348463;27;92004;-86
2022/03/05 00:29:42;;;;;;;;;;;7.20;64.20;7.90;99448.00;;;;346837;28;95667;-86
2022/03/05 00:29:53;;;;;;;;;;;7.20;64.80;7.90;99444.00;;;;348392;27;91914;-87
2022/03/05 00:30:06;;;;;;;;;;;7.30;64.20;7.90;99446.00;;;;345851;28;96771;-86
2022/03/05 00:30:18;;;;;;;;;;;7.30;64.20;7.90;99457.00;;;;347031;28;91125;-86
2022/03/05 00:30:29;;;;;;;;;;;7.30;64.10;7.90;99445.00;;;;345825;28;94853;-87
2022/03/05 00:30:41;;;;;;;;;;;7.30;64.00;7.90;99447.00;;;;345620;28;92014;-86
2022/03/05 00:30:58;;;;;;;;;;;7.30;63.90;7.90;99445.00;;;;347259;28;96278;-86
2022/03/05 00:31:09;;;;;;;;;;;7.30;64.40;7.90;99447.00;;;;346911;27;91162;-86
2022/03/05 00:31:21;;;;;;;;;;;7.30;63.70;7.90;99445.00;;;;346704;28;93554;-87
2022/03/05 00:31:33;;;;;;;;;;;7.30;63.70;7.80;99441.00;;;;344322;28;91940;-86
2022/03/05 00:31:45;;;;;;;;;;;7.30;63.90;7.80;99450.00;;;;343723;28;95715;-86
2022/03/05 00:31:57;;;;;;;;;;;7.30;64.00;7.80;99449.00;;;;345615;28;91193;-86
2022/03/05 00:32:09;;;;;;;;;;;7.30;64.00;7.90;99451.00;;;;344502;28;94726;-86
2022/03/05 00:32:21;;;;;;;;;;;7.30;64.50;7.90;99448.00;;;;346960;28;92766;-86
2022/03/05 00:32:33;;;;;;;;;;;7.30;63.80;7.90;99447.00;;;;347272;28;95680;-86
2022/03/05 00:32:46;;;;;;;;;;;7.30;63.70;7.90;99440.00;;;;345631;28;91922;-86
2022/03/05 00:32:58;;;;;;;;;;;7.30;63.60;7.90;99448.00;;;;344460;28;95062;-86
2022/03/05 00:33:10;;;;;;;;;;;7.30;63.60;7.90;99457.00;;;;345843;28;91222;-86
2022/03/05 00:33:24;;;;;;;;;;;7.30;63.50;7.80;99455.00;;;;345752;28;93238;-85
2022/03/05 00:33:36;;;;;;;;;;;7.30;63.50;7.80;99460.00;;;;348416;27;92307;-86
2022/03/05 00:33:49;;;;;;;;;;;7.30;63.70;7.70;99454.00;;;;345898;28;92680;-87
2022/03/05 00:34:01;;;;;;;;;;;7.20;63.80;7.80;99452.00;;;;347091;28;92057;-86
2022/03/05 00:34:12;;;;;;;;;;;7.20;64.00;7.80;99447.00;;;;347068;28;93411;-86
2022/03/05 00:34:24;;;;;;;;;;;7.20;63.70;7.90;99453.00;;;;345423;28;91269;-86
2022/03/05 00:34:36;;;;;;;;;;;7.20;63.70;7.90;99450.00;;;;348662;27;95979;-86
2022/03/05 00:34:48;;;;;;;;;;;7.20;63.80;7.90;99448.00;;;;348390;27;91366;-86
2022/03/05 00:35:00;;;;;;;;;;;7.20;63.70;7.90;99457.00;;;;347209;28;96280;-86
2022/03/05 00:35:12;;;;;;;;;;;7.20;63.70;7.90;99442.00;;;;345690;28;90491;-86
2022/03/05 00:35:24;;;;;;;;;;;7.20;63.70;7.90;99456.00;;;;348769;27;92699;-86
2022/03/05 00:35:36;;;;;;;;;;;7.20;63.80;7.90;99455.00;;;;346729;28;91779;-86
2022/03/05 00:35:48;;;;;;;;;;;7.20;63.80;7.80;99446.00;;;;347155;27;95504;-86
2022/03/05 00:35:59;;;;;;;;;;;7.20;63.80;7.90;99454.00;;;;347013;28;91985;-86
2022/03/05 00:36:11;;;;;;;;;;;7.30;63.90;7.90;99451.00;;;;347200;28;96282;-86
2022/03/05 00:36:23;;;;;;;;;;;7.20;63.80;7.90;99447.00;;;;347029;27;92056;-87
2022/03/05 00:36:36;;;;;;;;;;;7.20;63.90;7.80;99450.00;;;;347277;28;93294;-86
2022/03/05 00:36:47;;;;;;;;;;;7.20;64.00;7.90;99453.00;;;;345470;28;92007;-86
2022/03/05 00:36:59;;;;;;;;;;;7.20;63.90;7.80;99458.00;;;;348570;27;96830;-87
2022/03/05 00:37:11;;;;;;;;;;;7.30;64.10;7.70;99452.00;;;;347807;27;91282;-86
2022/03/05 00:37:23;;;;;;;;;;;7.20;64.10;7.90;99454.00;;;;347012;28;94916;-86
2022/03/05 00:37:34;;;;;;;;;;;7.20;64.80;7.80;99461.00;;;;347006;28;92018;-86
2022/03/05 00:37:46;;;;;;;;;;;7.20;64.60;7.80;99468.00;;;;345693;28;95723;-86
2022/03/05 00:37:58;;;;;;;;;;;7.20;64.70;7.80;99447.00;;;;343993;28;92164;-86
2022/03/05 00:38:11;;;;;;;;;;;7.20;64.60;7.90;99453.00;;;;345932;28;92471;-86
2022/03/05 00:38:23;;;;;;;;;;;7.20;64.50;7.90;99459.00;;;;345512;28;92073;-86
2022/03/05 00:38:35;;;;;;;;;;;7.20;64.50;7.90;99460.00;;;;345830;28;96291;-87
2022/03/05 00:38:46;;;;;;;;;;;7.20;64.40;7.90;99452.00;;;;345607;28;91962;-86
2022/03/05 00:38:58;;;;;;;;;;;7.20;64.30;7.90;99452.00;;;;345934;28;94862;-86
2022/03/05 00:39:10;;;;;;;;;;;7.30;64.30;7.80;99454.00;;;;344187;28;91381;-86
2022/03/05 00:39:22;;;;;;;;;;;7.20;64.20;7.80;99455.00;;;;345888;28;95664;-86
2022/03/05 00:39:34;;;;;;;;;;;7.20;64.30;7.80;99451.00;;;;348417;27;92038;-86
2022/03/05 00:39:46;;;;;;;;;;;7.20;64.30;7.80;99445.00;;;;348523;27;96385;-86
2022/03/05 00:39:57;;;;;;;;;;;7.20;64.10;7.80;99451.00;;;;347091;28;91993;-86
2022/03/05 00:40:10;;;;;;;;;;;7.20;64.10;7.90;99457.00;;;;349889;27;93411;-86
2022/03/05 00:40:21;;;;;;;;;;;7.20;64.20;7.90;99456.00;;;;349210;27;91222;-86
2022/03/05 00:40:34;;;;;;;;;;;7.20;64.50;7.90;99460.00;;;;348599;27;95933;-86
2022/03/05 00:40:46;;;;;;;;;;;7.20;64.50;7.70;99458.00;;;;345488;28;92142;-86
2022/03/05 00:40:58;;;;;;;;;;;7.20;64.60;7.70;99454.00;;;;345891;28;95777;-86
2022/03/05 00:41:09;;;;;;;;;;;7.20;64.60;7.60;99448.00;;;;347057;28;91248;-86
2022/03/05 00:41:21;;;;;;;;;;;7.20;64.60;7.70;99457.00;;;;347127;27;95595;-86
2022/03/05 00:41:33;;;;;;;;;;;7.20;64.60;7.80;99446.00;;;;346657;28;92202;-86
2022/03/05 00:41:45;;;;;;;;;;;7.20;64.50;7.90;99456.00;;;;347255;28;93384;-86
2022/03/05 00:41:57;;;;;;;;;;;7.20;64.60;7.80;99453.00;;;;348400;27;91985;-86
2022/03/05 00:42:09;;;;;;;;;;;7.20;64.80;7.60;99451.00;;;;349961;27;96461;-86
2022/03/05 00:42:21;;;;;;;;;;;7.20;64.90;7.60;99451.00;;;;344227;28;92008;-86
2022/03/05 00:42:33;;;;;;;;;;;7.20;65.00;7.60;99451.00;;;;345804;28;95889;-86
2022/03/05 00:42:45;;;;;;;;;;;7.20;64.90;7.60;99455.00;;;;345598;28;91971;-86
2022/03/05 00:42:56;;;;;;;;;;;7.10;64.70;7.70;99459.00;;;;347290;28;94565;-85
2022/03/05 00:43:08;;;;;;;;;;;7.10;64.70;7.70;99459.00;;;;348087;27;91323;-85
2022/03/05 00:43:20;;;;;;;;;;;7.20;64.80;7.80;99469.00;;;;347097;28;92427;-86
2022/03/05 00:43:32;;;;;;;;;;;7.20;64.60;7.80;99459.00;;;;348422;27;92066;-87
2022/03/05 00:43:44;;;;;;;;;;;7.20;64.60;7.90;99460.00;;;;348471;27;96298;-86
2022/03/05 00:43:55;;;;;;;;;;;7.20;64.70;7.80;99461.00;;;;347094;28;91125;-86
2022/03/05 00:44:07;;;;;;;;;;;7.20;64.80;7.80;99456.00;;;;347230;28;93921;-86
2022/03/05 00:44:19;;;;;;;;;;;7.20;65.30;7.90;99456.00;;;;346972;28;92058;-86
2022/03/05 00:44:32;;;;;;;;;;;7.20;64.70;7.80;99459.00;;;;345836;28;93224;-86
2022/03/05 00:44:44;;;;;;;;;;;7.20;64.70;7.70;99462.00;;;;346786;28;92086;-86
2022/03/05 00:44:59;;;;;;;;;;;7.20;64.50;7.60;99465.00;;;;347287;28;93087;-86
2022/03/05 00:45:11;;;;;;;;;;;7.20;64.80;7.60;99464.00;;;;348376;27;90527;-86
2022/03/05 00:45:23;;;;;;;;;;;7.20;64.90;7.60;99450.00;;;;348749;27;92656;-86
2022/03/05 00:45:36;;;;;;;;;;;7.20;65.20;7.70;99455.00;;;;345546;28;92042;-86
2022/03/05 00:45:48;;;;;;;;;;;7.20;65.00;7.80;99457.00;;;;344352;28;97127;-86
2022/03/05 00:46:00;;;;;;;;;;;7.20;64.80;7.80;99466.00;;;;348435;27;91997;-86
2022/03/05 00:46:12;;;;;;;;;;;7.20;64.70;7.70;99463.00;;;;348213;27;93604;-86
2022/03/05 00:46:24;;;;;;;;;;;7.20;64.70;7.70;99458.00;;;;346861;28;92168;-86
2022/03/05 00:46:36;;;;;;;;;;;7.20;64.60;7.60;99460.00;;;;347301;28;93217;-86
2022/03/05 00:46:47;;;;;;;;;;;7.10;64.70;7.70;99458.00;;;;349600;27;91253;-87
2022/03/05 00:46:59;;;;;;;;;;;7.10;64.60;7.70;99463.00;;;;347336;28;92185;-86
2022/03/05 00:47:11;;;;;;;;;;;7.10;64.70;7.80;99459.00;;;;348383;27;92036;-86
2022/03/05 00:47:23;;;;;;;;;;;7.10;64.80;7.80;99467.00;;;;347367;28;93313;-86
2022/03/05 00:47:34;;;;;;;;;;;7.10;64.80;7.80;99468.00;;;;345486;28;91980;-86
2022/03/05 00:47:46;;;;;;;;;;;7.10;64.80;7.70;99458.00;;;;347122;27;95650;-86
2022/03/05 00:47:58;;;;;;;;;;;7.10;64.70;7.70;99463.00;;;;347070;28;92001;-86
2022/03/05 00:48:10;;;;;;;;;;;7.10;64.70;7.60;99457.00;;;;345857;28;93526;-86
2022/03/05 00:48:22;;;;;;;;;;;7.10;64.90;7.60;99461.00;;;;346828;27;91182;-86
2022/03/05 00:48:33;;;;;;;;;;;7.10;65.50;7.50;99464.00;;;;348532;27;93522;-86
2022/03/05 00:48:45;;;;;;;;;;;7.10;64.80;7.70;99459.00;;;;348371;27;91146;-86
2022/03/05 00:48:57;;;;;;;;;;;7.10;64.80;7.70;99459.00;;;;348555;27;95688;-86
2022/03/05 00:49:09;;;;;;;;;;;7.10;64.80;7.60;99460.00;;;;346750;28;91269;-86
2022/03/05 00:49:20;;;;;;;;;;;7.10;64.80;7.60;99456.00;;;;347162;28;95105;-86
2022/03/05 00:49:32;;;;;;;;;;;7.10;65.00;7.50;99460.00;;;;347086;28;91886;-86
2022/03/05 00:49:44;;;;;;;;;;;7.10;65.00;7.60;99456.00;;;;347032;28;96013;-86
2022/03/05 00:49:56;;;;;;;;;;;7.10;64.80;7.60;99456.00;;;;348401;27;91160;-86
2022/03/05 00:50:09;;;;;;;;;;;7.10;64.60;7.60;99461.00;;;;347115;28;93997;-86
2022/03/05 00:50:20;;;;;;;;;;;7.10;64.50;7.60;99454.00;;;;348507;27;91817;-86
2022/03/05 00:50:33;;;;;;;;;;;7.10;64.40;7.70;99465.00;;;;347187;28;93480;-86
2022/03/05 00:50:44;;;;;;;;;;;7.10;64.60;7.80;99473.00;;;;346630;28;92641;-86
2022/03/05 00:50:56;;;;;;;;;;;7.10;64.90;7.80;99459.00;;;;348717;27;93582;-86
2022/03/05 00:51:08;;;;;;;;;;;7.10;65.00;7.80;99461.00;;;;346932;28;91396;-86
2022/03/05 00:51:20;;;;;;;;;;;7.10;65.10;7.80;99461.00;;;;347178;28;92348;-87
2022/03/05 00:51:31;;;;;;;;;;;7.10;64.90;7.80;99466.00;;;;346989;28;91127;-86
2022/03/05 00:51:43;;;;;;;;;;;7.10;64.80;7.70;99464.00;;;;348144;27;93935;-86
2022/03/05 00:51:55;;;;;;;;;;;7.10;64.80;7.70;99468.00;;;;344243;28;92166;-86
2022/03/05 00:52:07;;;;;;;;;;;7.10;64.80;7.70;99468.00;;;;345704;28;93518;-86
2022/03/05 00:52:20;;;;;;;;;;;7.10;64.80;7.70;99464.00;;;;344795;28;92095;-87
2022/03/05 00:52:32;;;;;;;;;;;7.10;64.80;7.70;99466.00;;;;345541;28;92717;-86
2022/03/05 00:52:44;;;;;;;;;;;7.10;64.70;7.70;99466.00;;;;343982;28;91238;-86
2022/03/05 00:52:55;;;;;;;;;;;7.10;64.60;7.60;99466.00;;;;344584;28;92230;-87
2022/03/05 00:53:10;;;;;;;;;;;7.10;64.60;7.60;99471.00;;;;346962;27;90363;-87
2022/03/05 00:53:22;;;;;;;;;;;7.10;64.50;7.70;99466.00;;;;345931;28;94390;-86
2022/03/05 00:53:34;;;;;;;;;;;7.10;64.50;7.60;99465.00;;;;344230;28;92090;-86
2022/03/05 00:53:46;;;;;;;;;;;7.10;64.80;7.60;99469.00;;;;345775;28;95572;-86
2022/03/05 00:53:57;;;;;;;;;;;7.10;64.80;7.60;99468.00;;;;345660;28;92026;-86
2022/03/05 00:54:09;;;;;;;;;;;7.00;65.00;7.60;99471.00;;;;345801;28;95745;-86
2022/03/05 00:54:21;;;;;;;;;;;7.00;64.90;7.60;99477.00;;;;344136;28;92116;-86
2022/03/05 00:54:33;;;;;;;;;;;7.00;64.80;7.60;99477.00;;;;346957;28;94434;-86
2022/03/05 00:54:45;;;;;;;;;;;7.00;64.90;7.50;99467.00;;;;346888;28;91911;-86
2022/03/05 00:54:56;;;;;;;;;;;7.00;65.30;7.50;99468.00;;;;345884;28;93309;-86
2022/03/05 00:55:08;;;;;;;;;;;7.00;65.30;7.50;99469.00;;;;345525;28;91328;-86
2022/03/05 00:55:20;;;;;;;;;;;7.00;65.00;7.50;99474.00;;;;346645;28;94125;-86
2022/03/05 00:55:32;;;;;;;;;;;7.00;65.30;7.40;99468.00;;;;346925;28;92017;-86
2022/03/05 00:55:44;;;;;;;;;;;7.00;65.50;7.40;99466.00;;;;344860;28;93785;-86
2022/03/05 00:55:56;;;;;;;;;;;7.00;65.60;7.40;99468.00;;;;345627;28;91995;-86
2022/03/05 00:56:08;;;;;;;;;;;7.00;65.70;7.60;99467.00;;;;344496;28;93084;-86
2022/03/05 00:56:20;;;;;;;;;;;7.00;65.50;7.60;99474.00;;;;345582;28;92094;-86
2022/03/05 00:56:32;;;;;;;;;;;7.00;65.50;7.70;99479.00;;;;342967;28;96754;-86
2022/03/05 00:56:44;;;;;;;;;;;7.00;65.50;7.70;99466.00;;;;345576;28;91972;-86
2022/03/05 00:56:56;;;;;;;;;;;7.00;65.50;7.60;99472.00;;;;345658;28;95688;-86
2022/03/05 00:57:07;;;;;;;;;;;7.00;65.30;7.60;99467.00;;;;345450;28;91312;-86
2022/03/05 00:57:19;;;;;;;;;;;7.00;65.10;7.70;99469.00;;;;344658;28;91929;-86
2022/03/05 00:57:31;;;;;;;;;;;7.00;65.20;7.60;99462.00;;;;345531;28;92093;-86
2022/03/05 00:57:43;;;;;;;;;;;7.00;65.20;7.60;99468.00;;;;345748;28;96127;-86
2022/03/05 00:57:54;;;;;;;;;;;7.00;65.20;7.50;99475.00;;;;345616;28;91165;-86
2022/03/05 00:58:06;;;;;;;;;;;7.00;65.20;7.60;99471.00;;;;344473;28;96914;-86
2022/03/05 00:58:18;;;;;;;;;;;7.00;65.30;7.70;99459.00;;;;343794;28;92154;-86
2022/03/05 00:58:30;;;;;;;;;;;7.00;65.40;7.70;99479.00;;;;345704;28;93791;-86
2022/03/05 00:58:42;;;;;;;;;;;7.00;65.50;7.70;99469.00;;;;346361;28;92055;-87
2022/03/05 00:58:54;;;;;;;;;;;7.00;65.30;7.70;99467.00;;;;345938;28;94002;-86
2022/03/05 00:59:05;;;;;;;;;;;7.10;65.20;7.60;99472.00;;;;345607;28;91243;-86
2022/03/05 00:59:17;;;;;;;;;;;7.00;65.10;7.60;99475.00;;;;346818;28;95423;-87
2022/03/05 00:59:29;;;;;;;;;;;7.00;65.10;7.70;99468.00;;;;344220;28;91944;-86
2022/03/05 00:59:41;;;;;;;;;;;7.00;65.00;7.70;99473.00;;;;345846;28;93086;-86
2022/03/05 00:59:53;;;;;;;;;;;7.00;65.00;7.60;99475.00;;;;345530;28;91934;-86
2022/03/05 01:00:05;;;;;;;;;;;7.00;64.80;7.60;99478.00;;;;345759;28;96521;-86
2022/03/05 01:00:17;;;;;;;;;;;7.00;64.70;7.60;99480.00;;;;344168;28;91905;-86
2022/03/05 01:00:29;;;;;;;;;;;7.00;64.80;7.60;99470.00;;;;345710;28;96634;-86
2022/03/05 01:00:41;;;;;;;;;;;7.00;64.90;7.60;99477.00;;;;345586;28;92264;-86
2022/03/05 01:00:53;;;;;;;;;;;7.00;65.00;7.70;99473.00;;;;345829;28;94883;-86
2022/03/05 01:01:05;;;;;;;;;;;7.00;65.10;7.70;99477.00;;;;347012;28;91337;-86